< < Back
Terminal Aerodrome Forecast


Current Version              Previous Versions:   1  2  3  4  5  6  7  8  9  

Terminal Aerodrome Forecast

719
FTUS42 KFFC 250520
TAFPDK
TAF
KPDK 250520Z 2506/2606 00000KT P6SM SCT250
      TEMPO 2507/2511 3SM BR SCT003
     FM251300 VRB03KT P6SM SCT020
     FM251500 VRB03KT P6SM SCT030
     FM251700 02004KT P6SM SCT045
     FM260100 00000KT P6SM SCT250=

Latest METAR

439
SAUS70 KWBC 252300 RRC
MTRPDK
METAR KPDK 252253Z 00000KT 10SM CLR 32/18 A3009 RMK AO2 SLP169
T03220183


USA.gov is the U.S. government's official web portal to all federal, state and local government web resources and services.